createdAt,value
2023-05-13T00:00:01.322Z,0.0
2023-05-13T00:05:01.383Z,0.0
2023-05-13T00:10:00.428Z,0.0
2023-05-13T00:15:00.445Z,0.0
2023-05-13T00:20:00.432Z,4.0
2023-05-13T00:30:00.631Z,2.5
2023-05-13T00:35:00.540Z,4.0
2023-05-13T00:40:00.435Z,1.8
2023-05-13T00:45:00.414Z,3.6
2023-05-13T00:50:00.454Z,4.0
2023-05-13T00:55:00.410Z,3.2
2023-05-13T01:00:00.504Z,3.2
2023-05-13T01:05:00.508Z,4.0
2023-05-13T01:10:00.456Z,3.2
2023-05-13T01:15:00.610Z,3.6
2023-05-13T01:20:00.434Z,4.0
2023-05-13T01:25:00.425Z,2.5
2023-05-13T01:30:00.419Z,3.2
2023-05-13T01:35:00.425Z,3.2
2023-05-13T01:40:00.429Z,2.2
2023-05-13T01:45:00.430Z,2.2
2023-05-13T01:50:00.495Z,2.9
2023-05-13T01:55:00.453Z,2.5
2023-05-13T02:00:00.426Z,2.5
2023-05-13T02:05:00.435Z,2.5
2023-05-13T02:10:00.411Z,3.6
2023-05-13T02:15:00.688Z,3.2
2023-05-13T02:20:00.442Z,3.6
2023-05-13T02:25:00.444Z,3.2
2023-05-13T02:30:00.642Z,2.5
2023-05-13T02:35:00.405Z,2.2
2023-05-13T02:40:00.471Z,2.2
2023-05-13T02:45:00.416Z,2.5
2023-05-13T02:50:00.472Z,0.0
2023-05-13T02:55:00.655Z,2.9
2023-05-13T03:00:00.431Z,4.0
2023-05-13T03:05:00.434Z,2.2
2023-05-13T03:10:00.471Z,2.9
2023-05-13T03:15:00.441Z,2.5
2023-05-13T03:20:00.486Z,2.2
2023-05-13T03:25:00.433Z,2.5
2023-05-13T03:30:00.566Z,2.5
2023-05-13T03:35:00.471Z,2.9
2023-05-13T03:40:00.441Z,2.5
2023-05-13T03:45:00.413Z,3.2
2023-05-13T03:50:00.421Z,3.6
2023-05-13T03:55:00.463Z,3.6
2023-05-13T04:00:00.432Z,3.6
2023-05-13T04:05:00.494Z,2.2
2023-05-13T04:10:00.554Z,2.5
2023-05-13T04:15:00.417Z,2.5
2023-05-13T04:20:00.510Z,4.7
2023-05-13T04:25:00.438Z,2.9
2023-05-13T04:30:00.516Z,1.8
2023-05-13T04:35:00.434Z,2.2
2023-05-13T04:40:00.430Z,2.5
2023-05-13T04:45:00.435Z,2.9
2023-05-13T04:50:01.099Z,2.5
2023-05-13T04:55:00.432Z,4.0
2023-05-13T05:00:00.443Z,2.9
2023-05-13T05:05:00.426Z,4.3
2023-05-13T05:10:00.510Z,6.1
2023-05-13T05:15:00.461Z,4.3
2023-05-13T05:20:00.513Z,7.2
2023-05-13T05:25:00.411Z,9.7
2023-05-13T05:30:03.220Z,8.6
2023-05-13T05:35:00.443Z,5.4
2023-05-13T05:40:00.440Z,9.0
2023-05-13T05:45:00.446Z,6.1
2023-05-13T05:50:00.503Z,9.7
2023-05-13T05:55:00.421Z,10.1
2023-05-13T06:00:00.541Z,12.6
2023-05-13T06:05:00.434Z,10.8
2023-05-13T06:10:00.440Z,13.3
2023-05-13T06:15:00.521Z,13.0
2023-05-13T06:20:00.433Z,6.5
2023-05-13T06:25:00.462Z,9.4
2023-05-13T06:30:00.508Z,8.3
2023-05-13T06:35:00.453Z,7.6
2023-05-13T06:40:00.448Z,12.2
2023-05-13T06:45:00.431Z,11.5
2023-05-13T06:50:00.428Z,13.0
2023-05-13T06:55:00.421Z,10.1
2023-05-13T07:00:00.524Z,13.0
2023-05-13T07:05:00.389Z,16.9
2023-05-13T07:10:00.431Z,6.1
2023-05-13T07:15:00.574Z,4.7
2023-05-13T07:20:00.420Z,8.3
2023-05-13T07:25:00.442Z,7.9
2023-05-13T07:30:00.645Z,8.3
2023-05-13T07:35:00.438Z,8.3
2023-05-13T07:40:00.407Z,26.3
2023-05-13T07:45:00.549Z,12.2
2023-05-13T07:50:00.448Z,18.4
2023-05-13T07:55:00.421Z,16.9
2023-05-13T08:00:00.522Z,21.2
2023-05-13T08:05:00.547Z,15.5
2023-05-13T08:10:00.721Z,22.3
2023-05-13T08:15:00.507Z,16.6
2023-05-13T08:20:00.542Z,34.9
2023-05-13T08:25:00.427Z,34.9
2023-05-13T08:30:00.518Z,39.6
2023-05-13T08:35:00.439Z,38.5
2023-05-13T08:40:00.440Z,23.0
2023-05-13T08:45:00.531Z,15.8
2023-05-13T08:50:00.444Z,22.0
2023-05-13T08:55:00.426Z,21.2
2023-05-13T09:00:00.428Z,24.8
2023-05-13T09:05:00.645Z,29.5
2023-05-13T09:10:00.447Z,14.8
2023-05-13T09:15:00.440Z,24.8
2023-05-13T09:20:00.865Z,27.7
2023-05-13T09:25:00.444Z,31.3
2023-05-13T09:30:00.454Z,29.5
2023-05-13T09:35:00.425Z,24.1
2023-05-13T09:40:00.428Z,14.8
2023-05-13T09:45:00.437Z,31.3
2023-05-13T09:50:00.462Z,23.4
2023-05-13T09:55:00.445Z,12.2
2023-05-13T10:00:00.453Z,20.9
2023-05-13T10:05:00.438Z,19.4
2023-05-13T10:10:00.436Z,27.0
2023-05-13T10:15:00.450Z,14.4
2023-05-13T10:20:00.449Z,20.5
2023-05-13T10:25:00.436Z,27.4
2023-05-13T10:30:04.227Z,6.5
2023-05-13T10:35:00.458Z,13.3
2023-05-13T10:40:00.565Z,16.6
2023-05-13T10:45:00.442Z,15.8
2023-05-13T10:50:00.541Z,18.0
2023-05-13T10:55:00.516Z,5.8
2023-05-13T11:00:00.431Z,4.7
2023-05-13T11:05:00.548Z,16.2
2023-05-13T11:10:00.439Z,20.5
2023-05-13T11:15:00.515Z,19.4
2023-05-13T11:20:00.468Z,21.6
2023-05-13T11:25:00.464Z,15.1
2023-05-13T11:30:00.399Z,17.6
2023-05-13T11:35:00.441Z,24.5
2023-05-13T11:40:00.570Z,15.5
2023-05-13T11:45:00.567Z,31.3
2023-05-13T11:50:00.351Z,14.4
2023-05-13T11:55:00.494Z,23.0
2023-05-13T12:00:00.454Z,18.7
2023-05-13T12:05:00.601Z,18.0
2023-05-13T12:10:00.443Z,14.4
2023-05-13T12:15:00.499Z,6.8
2023-05-13T12:20:00.445Z,18.0
2023-05-13T12:25:00.455Z,10.4
2023-05-13T12:30:00.449Z,16.6
2023-05-13T12:35:00.478Z,15.5
2023-05-13T12:40:00.444Z,13.7
2023-05-13T12:45:00.444Z,16.9
2023-05-13T12:50:00.427Z,7.6
2023-05-13T12:55:00.423Z,5.0
2023-05-13T13:00:00.643Z,32.0
2023-05-13T13:05:00.437Z,10.4
2023-05-13T13:10:00.535Z,16.6
2023-05-13T13:15:00.437Z,21.2
2023-05-13T13:20:00.423Z,22.7
2023-05-13T13:25:00.470Z,12.6
2023-05-13T13:30:00.375Z,14.8
2023-05-13T13:35:00.442Z,27.0
2023-05-13T13:40:00.425Z,19.8
2023-05-13T13:45:00.477Z,16.9
2023-05-13T13:50:00.465Z,16.9
2023-05-13T13:55:00.519Z,16.2
2023-05-13T14:00:00.497Z,20.9
2023-05-13T14:05:00.453Z,17.3
2023-05-13T14:10:01.954Z,19.8
2023-05-13T14:15:00.438Z,20.9
2023-05-13T14:20:00.464Z,20.5
2023-05-13T14:25:00.451Z,15.8
2023-05-13T14:30:00.632Z,21.2
2023-05-13T14:35:00.742Z,16.2
2023-05-13T14:40:00.458Z,25.6
2023-05-13T14:45:00.502Z,24.1
2023-05-13T14:50:00.535Z,24.1
2023-05-13T14:55:00.432Z,24.1
2023-05-13T15:00:00.545Z,16.9
2023-05-13T15:05:00.418Z,9.4
2023-05-13T15:10:00.512Z,17.3
2023-05-13T15:15:00.502Z,10.4
2023-05-13T15:20:00.453Z,20.2
2023-05-13T15:25:00.421Z,16.9
2023-05-13T15:30:00.438Z,16.2
2023-05-13T15:35:00.545Z,14.4
2023-05-13T15:40:00.624Z,18.4
2023-05-13T15:45:00.546Z,18.0
2023-05-13T15:50:00.994Z,21.6
2023-05-13T15:55:00.558Z,12.6
2023-05-13T16:00:00.837Z,15.1
2023-05-13T16:05:00.434Z,19.4
2023-05-13T16:10:00.573Z,13.3
2023-05-13T16:15:00.447Z,16.2
2023-05-13T16:20:00.558Z,13.0
2023-05-13T16:25:00.497Z,22.0
2023-05-13T16:30:00.686Z,13.0
2023-05-13T16:35:00.443Z,19.1
2023-05-13T16:40:00.505Z,16.9
2023-05-13T16:45:00.440Z,11.5
2023-05-13T16:50:00.452Z,10.1
2023-05-13T16:55:00.457Z,9.0
2023-05-13T17:00:00.415Z,15.1
2023-05-13T17:05:00.454Z,15.8
2023-05-13T17:10:00.422Z,19.8
2023-05-13T17:15:00.508Z,21.2
2023-05-13T17:20:00.635Z,10.1
2023-05-13T17:25:00.682Z,10.4
2023-05-13T17:30:00.461Z,18.4
2023-05-13T17:35:00.518Z,11.5
2023-05-13T17:40:00.415Z,9.7
2023-05-13T17:45:00.646Z,4.3
2023-05-13T17:50:00.477Z,4.7
2023-05-13T17:55:00.563Z,0.0
2023-05-13T18:00:00.528Z,8.6
2023-05-13T18:05:00.413Z,7.2
2023-05-13T18:10:00.504Z,6.5
2023-05-13T18:15:00.473Z,2.9
2023-05-13T18:20:00.440Z,1.8
2023-05-13T18:25:00.659Z,0.0
2023-05-13T18:30:00.417Z,4.0
2023-05-13T18:35:00.487Z,0.0
2023-05-13T18:40:00.515Z,3.2
2023-05-13T18:45:00.577Z,0.0
2023-05-13T18:50:00.439Z,2.5
2023-05-13T18:55:00.432Z,0.0
2023-05-13T19:00:00.570Z,0.0
2023-05-13T19:05:00.514Z,0.0
2023-05-13T19:10:00.526Z,0.0
2023-05-13T19:15:00.618Z,0.0
2023-05-13T19:20:00.808Z,0.0
2023-05-13T19:25:00.437Z,2.2
2023-05-13T19:30:00.506Z,0.0
2023-05-13T19:35:00.441Z,0.0
2023-05-13T19:40:00.475Z,0.0
2023-05-13T19:45:00.427Z,0.0
2023-05-13T19:50:00.592Z,0.0
2023-05-13T19:55:00.638Z,0.0
2023-05-13T20:00:00.489Z,0.0
2023-05-13T20:05:00.567Z,0.0
2023-05-13T20:10:00.415Z,0.0
2023-05-13T20:15:00.686Z,0.0
2023-05-13T20:20:00.611Z,0.0
2023-05-13T20:25:00.428Z,0.0
2023-05-13T20:30:00.693Z,0.0
2023-05-13T20:35:00.498Z,0.0
2023-05-13T20:40:00.387Z,0.0
2023-05-13T20:45:00.590Z,0.0
2023-05-13T20:50:00.450Z,0.0
2023-05-13T20:55:00.425Z,0.0
2023-05-13T21:00:00.586Z,0.0
2023-05-13T21:05:00.482Z,2.2
2023-05-13T21:10:00.423Z,2.2
2023-05-13T21:15:00.506Z,2.2
2023-05-13T21:20:00.430Z,0.0
2023-05-13T21:25:00.448Z,0.0
2023-05-13T21:30:00.440Z,0.0
2023-05-13T21:35:00.524Z,1.4
2023-05-13T21:40:00.454Z,1.4
2023-05-13T21:45:00.430Z,0.0
2023-05-13T21:50:00.435Z,0.0
2023-05-13T21:55:00.426Z,1.4
2023-05-13T22:00:00.562Z,0.0
2023-05-13T22:05:00.384Z,1.8
2023-05-13T22:10:00.496Z,3.2
2023-05-13T22:15:00.497Z,2.5
2023-05-13T22:20:00.424Z,3.2
2023-05-13T22:25:00.432Z,2.2
2023-05-13T22:30:00.535Z,2.2
2023-05-13T22:35:00.646Z,2.2
2023-05-13T22:40:00.462Z,2.2
2023-05-13T22:45:00.445Z,1.4
2023-05-13T22:50:00.453Z,1.8
2023-05-13T22:55:00.440Z,2.5
2023-05-13T23:00:00.437Z,2.5
2023-05-13T23:05:00.458Z,2.9
2023-05-13T23:10:00.881Z,0.0
2023-05-13T23:15:00.550Z,1.8
2023-05-13T23:20:00.391Z,1.4
2023-05-13T23:25:00.420Z,1.8
2023-05-13T23:30:00.450Z,0.0
2023-05-13T23:35:00.457Z,2.2
2023-05-13T23:40:00.415Z,0.0
2023-05-13T23:45:00.398Z,0.0
2023-05-13T23:50:00.409Z,0.0
2023-05-13T23:55:00.426Z,1.4
